Time;durP1;ratioP1;P1;durP2;ratioP2;P2;SDS_P1;SDS_P2;PMS_P1;PMS_P2;Temp;Humidity;BMP_temperature;BMP_pressure;BME280_temperature;BME280_humidity;BME280_pressure;Samples;Min_cycle;Max_cycle;Signal;HPM_P1;HPM_P2
2021/12/20 00:01:46;;;;;;;;;;;2.60;99.90;;;2.48;69.73;98419.47;5032889;28;19946;-78
2021/12/20 00:04:13;;;;;;;;;;;2.50;99.90;;;2.46;70.18;98426.91;5011984;28;19940;-78
2021/12/20 00:06:38;;;;;;;;;;;2.50;99.90;;;2.37;69.71;98429.94;5031166;28;20344;-78
2021/12/20 00:09:04;;;;;;;;;;;2.40;99.90;;;2.39;70.21;98438.56;5014451;28;20351;-78
2021/12/20 00:11:32;;;;;;;;;;;2.30;99.90;;;2.39;70.36;98435.88;5014256;28;19964;-78
2021/12/20 00:13:57;;;;;;;;;;;2.30;99.90;;;2.38;70.87;98431.53;5013275;28;19936;-78
2021/12/20 00:16:23;;;;;;;;;;;2.30;99.90;;;2.39;70.31;98429.69;5015758;28;19929;-78
2021/12/20 00:18:49;;;;;;;;;;;2.40;99.90;;;2.35;70.38;98429.34;5015604;28;20276;-78
2021/12/20 00:21:15;;;;;;;;;;;2.40;99.90;;;2.41;70.01;98424.91;4999398;28;19936;-78
2021/12/20 00:23:41;;;;;;;;;;;2.40;99.90;;;2.48;69.73;98430.97;5015081;28;19929;-78
2021/12/20 00:26:09;;;;;;;;;;;2.50;99.90;;;2.58;69.29;98425.06;5013498;28;20019;-78
2021/12/20 00:28:35;;;;;;;;;;;2.50;99.90;;;2.61;69.78;98425.41;5029092;28;19928;-78
2021/12/20 00:31:01;;;;;;;;;;;2.50;99.90;;;2.88;68.34;98433.00;5031731;28;19928;-78
2021/12/20 00:33:33;;;;;;;;;;;2.60;99.90;;;2.89;68.00;98428.47;5017600;28;20365;-78
2021/12/20 00:36:03;;;;;;;;;;;2.60;99.90;;;3.06;67.07;98437.44;4997152;28;20368;-78
2021/12/20 00:41:13;;;;;;;;;;;2.70;99.90;;;3.13;66.79;98438.13;5016515;28;19926;-78
2021/12/20 00:43:40;;;;;;;;;;;2.80;99.90;;;2.98;67.47;98443.97;5018958;28;19972;-78
2021/12/20 00:46:05;;;;;;;;;;;2.80;99.90;;;3.10;68.03;98443.94;5011769;28;19964;-78
2021/12/20 00:48:31;;;;;;;;;;;2.80;99.90;;;3.09;67.75;98445.00;5013639;28;19933;-78
2021/12/20 00:50:57;;;;;;;;;;;2.90;99.90;;;3.05;66.92;98435.78;5012093;28;20032;-78
2021/12/20 00:53:23;;;;;;;;;;;2.90;99.90;;;3.13;67.75;98442.66;5032740;28;20387;-78
2021/12/20 00:55:49;;;;;;;;;;;2.90;99.90;;;3.07;67.22;98443.59;5014660;28;19982;-77
2021/12/20 00:58:15;;;;;;;;;;;3.00;99.90;;;3.18;67.34;98445.47;5012751;28;19998;-78
2021/12/20 01:00:43;;;;;;;;;;;3.00;99.90;;;3.25;67.01;98438.13;4996776;28;20384;-77
2021/12/20 01:03:12;;;;;;;;;;;3.00;99.90;;;3.30;67.47;98437.41;4997558;28;19984;-78
2021/12/20 01:05:38;;;;;;;;;;;3.00;99.90;;;3.27;67.79;98444.06;4999434;28;19986;-78
2021/12/20 01:08:06;;;;;;;;;;;3.10;99.90;;;3.22;67.76;98441.25;5024802;28;20385;-78
2021/12/20 01:10:33;;;;;;;;;;;3.10;99.90;;;3.20;67.51;98443.38;5027412;28;19933;-78
2021/12/20 01:13:01;;;;;;;;;;;3.10;99.90;;;3.18;67.95;98445.47;5010926;28;19925;-78
2021/12/20 01:15:34;;;;;;;;;;;3.00;99.90;;;3.08;67.97;98445.22;5028266;28;20508;-78
2021/12/20 01:18:01;;;;;;;;;;;3.00;99.90;;;3.02;68.43;98446.97;5029029;28;19929;-78
2021/12/20 01:20:26;;;;;;;;;;;3.00;99.90;;;3.21;68.30;98440.47;4997859;28;19979;-77
2021/12/20 01:22:52;;;;;;;;;;;3.00;99.90;;;3.19;67.89;98437.19;5028396;28;19969;-78
2021/12/20 01:25:19;;;;;;;;;;;3.00;99.90;;;3.20;67.98;98438.00;5013859;28;20044;-78
2021/12/20 01:27:45;;;;;;;;;;;3.00;99.90;;;3.16;68.58;98440.34;4999953;28;20418;-78
2021/12/20 01:30:12;;;;;;;;;;;3.00;99.90;;;3.24;67.48;98433.81;5025974;28;19929;-78
2021/12/20 01:32:38;;;;;;;;;;;3.10;99.90;;;3.23;67.32;98433.00;5015041;28;20393;-78
2021/12/20 01:35:05;;;;;;;;;;;3.10;99.90;;;3.14;67.85;98445.13;5016898;28;20000;-78
2021/12/20 01:37:31;;;;;;;;;;;3.10;99.90;;;3.19;68.08;98439.06;5015466;28;20416;-78
2021/12/20 01:39:59;;;;;;;;;;;3.10;99.90;;;3.13;67.67;98437.31;5015639;28;19989;-78
2021/12/20 01:42:25;;;;;;;;;;;3.10;99.90;;;3.14;68.03;98436.28;5013382;28;22314;-77
2021/12/20 01:44:55;;;;;;;;;;;3.00;99.90;;;3.19;67.85;98441.75;5030304;28;20456;-78
2021/12/20 01:47:22;;;;;;;;;;;3.10;99.90;;;3.16;67.90;98443.03;5029609;28;19933;-77
2021/12/20 01:50:15;;;;;;;;;;;3.00;99.90;;;3.11;67.36;98447.47;5012825;28;19929;-78
2021/12/20 01:52:43;;;;;;;;;;;3.00;99.90;;;3.17;68.00;98444.66;5027706;28;19975;-78
2021/12/20 01:55:11;;;;;;;;;;;3.00;99.90;;;3.20;67.58;98444.16;5013506;28;19936;-78
2021/12/20 01:57:37;;;;;;;;;;;3.10;99.90;;;3.23;67.09;98451.78;5015826;28;19937;-78
2021/12/20 02:00:08;;;;;;;;;;;3.10;99.90;;;3.14;67.62;98439.75;5010257;28;20300;-77
2021/12/20 02:02:33;;;;;;;;;;;3.10;99.90;;;3.12;68.02;98438.38;5012053;28;19975;-77
2021/12/20 02:05:11;;;;;;;;;;;3.10;99.90;;;3.24;67.03;98445.34;5011084;28;19933;-78
2021/12/20 02:07:50;;;;;;;;;;;3.00;99.90;;;3.28;67.12;98456.41;5000783;28;20375;-78
2021/12/20 02:10:17;;;;;;;;;;;3.10;99.90;;;3.34;67.10;98449.31;5018233;28;19929;-78
2021/12/20 02:12:43;;;;;;;;;;;3.10;99.90;;;3.37;66.38;98440.78;4995166;28;19933;-78
2021/12/20 02:15:09;;;;;;;;;;;3.20;99.90;;;3.28;67.03;98448.34;4998560;28;20268;-78
2021/12/20 02:17:35;;;;;;;;;;;3.10;99.90;;;3.26;67.16;98447.81;5011532;28;19952;-77
2021/12/20 02:20:03;;;;;;;;;;;3.10;99.90;;;3.30;67.15;98448.94;5015823;28;19933;-78
2021/12/20 02:22:29;;;;;;;;;;;3.10;99.90;;;3.29;67.02;98449.19;5014939;28;19933;-78
2021/12/20 02:24:54;;;;;;;;;;;3.20;99.90;;;3.18;66.82;98451.66;4996331;28;19954;-78
2021/12/20 02:27:22;;;;;;;;;;;3.10;99.90;;;3.31;66.76;98455.13;4996860;28;19960;-78
2021/12/20 02:30:06;;;;;;;;;;;3.10;99.90;;;3.32;66.72;98451.41;5028927;28;19925;-78
2021/12/20 02:36:58;;;;;;;;;;;3.20;99.90;;;3.28;66.14;98445.69;5027363;28;19975;-78
2021/12/20 02:38:39;;;;;;;;;;;3.20;99.90;;;3.21;65.89;98450.38;5034246;28;19970;-78
2021/12/20 02:41:10;;;;;;;;;;;3.20;99.90;;;3.16;66.43;98445.72;5030491;28;19925;-78
2021/12/20 02:43:41;;;;;;;;;;;3.10;99.90;;;3.20;66.73;98446.84;5015418;28;19925;-78
2021/12/20 02:46:44;;;;;;;;;;;3.10;99.90;;;3.23;66.78;98445.56;5033714;28;19937;-78
2021/12/20 02:49:11;;;;;;;;;;;3.20;99.90;;;3.33;66.13;98445.78;5022989;28;19929;-78
2021/12/20 02:51:38;;;;;;;;;;;3.20;99.90;;;3.39;66.21;98441.38;5018121;28;19951;-78
2021/12/20 02:54:05;;;;;;;;;;;3.20;99.90;;;3.37;65.92;98438.91;5015085;28;19926;-78
2021/12/20 02:56:30;;;;;;;;;;;3.30;99.90;;;3.43;65.81;98443.31;5032729;28;19931;-79
2021/12/20 02:58:56;;;;;;;;;;;3.30;99.90;;;3.44;65.05;98444.16;5020811;28;19958;-78
2021/12/20 03:01:22;;;;;;;;;;;3.30;99.90;;;3.41;65.11;98439.25;5038154;28;19933;-78
2021/12/20 03:03:49;;;;;;;;;;;3.30;99.90;;;3.34;65.54;98452.00;5017326;28;19925;-78
2021/12/20 03:06:20;;;;;;;;;;;3.30;99.90;;;3.33;65.22;98448.47;5016187;28;19931;-77
2021/12/20 03:08:49;;;;;;;;;;;3.20;99.90;;;3.28;65.03;98448.34;5019133;28;20507;-78
2021/12/20 03:11:15;;;;;;;;;;;3.20;99.90;;;3.19;65.09;98447.91;5014277;28;20388;-78
2021/12/20 03:13:43;;;;;;;;;;;3.20;99.90;;;3.20;64.60;98452.22;5030826;28;20016;-78
2021/12/20 03:16:09;;;;;;;;;;;3.20;99.90;;;3.27;65.17;98449.41;5001083;28;19970;-78
2021/12/20 03:18:35;;;;;;;;;;;3.10;99.90;;;3.29;64.77;98452.69;5017607;28;20443;-78
2021/12/20 03:21:01;;;;;;;;;;;3.10;99.90;;;3.22;64.47;98446.63;5031368;28;19936;-78
2021/12/20 03:23:27;;;;;;;;;;;3.10;99.90;;;3.26;64.37;98445.94;5016691;28;20322;-78
2021/12/20 03:25:53;;;;;;;;;;;3.20;99.90;;;3.37;64.80;98438.91;5031760;28;19939;-78
2021/12/20 03:28:19;;;;;;;;;;;3.20;99.90;;;3.37;64.47;98451.50;4999411;28;19929;-78
2021/12/20 03:30:45;;;;;;;;;;;3.20;99.90;;;3.37;64.36;98438.91;5033326;28;19925;-78
2021/12/20 03:33:10;;;;;;;;;;;3.20;99.90;;;3.39;64.19;98444.06;5016237;28;19940;-78
2021/12/20 03:35:37;;;;;;;;;;;3.20;99.90;;;3.37;64.04;98440.78;4998140;28;19978;-78
2021/12/20 03:38:03;;;;;;;;;;;3.20;99.90;;;3.45;64.45;98451.94;5031742;28;20372;-78
2021/12/20 03:40:28;;;;;;;;;;;3.20;99.90;;;3.41;64.41;98458.03;5016677;28;19936;-78
2021/12/20 03:42:55;;;;;;;;;;;3.30;99.90;;;3.35;63.70;98443.69;5013714;28;20054;-78
2021/12/20 03:45:20;;;;;;;;;;;3.20;99.90;;;3.37;64.92;98460.38;5013814;28;19932;-78
2021/12/20 03:47:46;;;;;;;;;;;3.20;99.90;;;3.35;64.22;98449.06;5014637;28;20331;-78
2021/12/20 03:50:13;;;;;;;;;;;3.20;99.90;;;3.39;64.48;98436.00;4999172;28;19929;-78
2021/12/20 03:52:38;;;;;;;;;;;3.20;99.90;;;3.40;64.14;98441.13;5000433;28;20292;-78
2021/12/20 03:55:08;;;;;;;;;;;3.20;99.90;;;3.37;64.19;98444.28;5014316;28;19925;-78
2021/12/20 03:57:34;;;;;;;;;;;3.30;99.90;;;3.45;64.29;98446.59;5015260;28;20316;-78
2021/12/20 04:00:00;;;;;;;;;;;3.30;99.90;;;3.42;64.60;98428.28;5013554;28;19929;-78
2021/12/20 04:02:27;;;;;;;;;;;3.30;99.90;;;3.40;63.63;98430.41;5015600;28;19936;-78
2021/12/20 04:04:53;;;;;;;;;;;3.30;99.90;;;3.37;64.21;98427.38;5015160;28;19972;-78
2021/12/20 04:07:19;;;;;;;;;;;3.30;99.90;;;3.35;64.76;98424.13;5032554;28;19929;-78
2021/12/20 04:09:45;;;;;;;;;;;3.20;99.90;;;3.36;64.28;98425.72;4998030;28;19925;-78
2021/12/20 04:12:11;;;;;;;;;;;3.20;99.90;;;3.44;63.57;98422.72;5015960;28;20027;-78
2021/12/20 04:14:37;;;;;;;;;;;3.20;99.90;;;3.43;64.00;98418.38;5013373;28;19987;-78
2021/12/20 04:17:03;;;;;;;;;;;3.20;99.90;;;3.40;64.10;98435.75;5033357;28;20353;-78
2021/12/20 04:19:29;;;;;;;;;;;3.20;99.90;;;3.39;64.20;98442.19;5016497;28;20006;-78
2021/12/20 04:21:55;;;;;;;;;;;3.20;99.90;;;3.31;63.54;98444.38;5016060;28;19925;-78
2021/12/20 04:24:21;;;;;;;;;;;3.20;99.90;;;3.22;64.12;98442.06;5028903;28;19929;-78
2021/12/20 04:26:47;;;;;;;;;;;3.10;99.90;;;3.23;64.08;98438.38;5033597;28;19929;-78
2021/12/20 04:29:12;;;;;;;;;;;3.10;99.90;;;3.32;63.70;98440.69;5016553;28;20408;-78
2021/12/20 04:31:38;;;;;;;;;;;3.20;99.90;;;3.29;64.20;98431.25;5029620;28;19999;-78
2021/12/20 04:34:04;;;;;;;;;;;3.10;99.90;;;3.18;64.40;98430.22;5015669;28;19925;-78
2021/12/20 04:36:33;;;;;;;;;;;3.10;99.90;;;3.26;63.83;98437.88;5029680;28;19925;-78
2021/12/20 04:38:59;;;;;;;;;;;3.10;99.90;;;3.25;64.23;98440.78;5029896;28;20292;-78
2021/12/20 04:41:25;;;;;;;;;;;3.10;99.90;;;3.36;63.67;98442.66;5029218;28;19925;-78
2021/12/20 04:43:50;;;;;;;;;;;3.20;99.90;;;3.34;63.06;98438.59;5015045;28;19935;-78
2021/12/20 04:46:17;;;;;;;;;;;3.20;99.90;;;3.31;62.91;98455.13;4997634;28;19929;-79
2021/12/20 04:48:43;;;;;;;;;;;3.20;99.90;;;3.39;63.17;98457.47;4999190;28;19936;-79
2021/12/20 04:51:09;;;;;;;;;;;3.20;99.90;;;3.24;62.73;98444.53;4998368;28;20430;-79
2021/12/20 04:53:35;;;;;;;;;;;3.20;99.90;;;3.31;63.36;98463.16;5017696;28;19991;-78
2021/12/20 04:56:01;;;;;;;;;;;3.20;99.90;;;3.34;63.60;98460.84;5015447;28;20015;-78
2021/12/20 04:58:27;;;;;;;;;;;3.20;99.90;;;3.37;63.29;98460.38;5013723;28;19936;-79
2021/12/20 05:00:53;;;;;;;;;;;3.20;99.90;;;3.37;63.69;98464.91;5010691;28;20649;-78
2021/12/20 05:03:19;;;;;;;;;;;3.10;99.90;;;3.34;63.36;98468.88;5014594;28;20396;-78
2021/12/20 05:05:44;;;;;;;;;;;3.10;99.90;;;3.36;64.69;98469.47;5016665;28;19936;-78
2021/12/20 05:08:12;;;;;;;;;;;3.20;99.90;;;3.46;63.90;98450.91;5013493;28;20086;-78
2021/12/20 05:10:40;;;;;;;;;;;3.20;99.90;;;3.42;64.25;98457.78;5031922;28;19972;-78
2021/12/20 05:13:08;;;;;;;;;;;3.30;99.90;;;3.38;64.23;98459.31;5029475;28;19928;-78
2021/12/20 05:15:35;;;;;;;;;;;3.30;99.90;;;3.31;64.43;98460.47;5029352;28;20011;-79
2021/12/20 05:18:01;;;;;;;;;;;3.20;99.90;;;3.33;64.24;98461.06;5014650;28;20284;-78
2021/12/20 05:20:27;;;;;;;;;;;3.20;99.90;;;3.28;64.95;98461.75;5030588;28;19929;-78
2021/12/20 05:22:54;;;;;;;;;;;3.20;99.90;;;3.31;65.14;98455.13;5014508;28;20389;-79
2021/12/20 05:25:20;;;;;;;;;;;3.20;99.90;;;3.16;64.68;98464.47;5014709;28;20008;-79
2021/12/20 05:27:46;;;;;;;;;;;3.10;99.90;;;3.23;64.86;98459.81;5016892;28;19936;-79
2021/12/20 05:30:13;;;;;;;;;;;3.10;99.90;;;3.21;65.51;98453.06;5015302;28;20352;-79
2021/12/20 05:32:38;;;;;;;;;;;3.10;99.90;;;3.23;65.79;98453.59;5029601;28;20059;-79
2021/12/20 05:35:05;;;;;;;;;;;3.10;99.90;;;3.30;64.97;98440.91;4997400;28;20300;-79
2021/12/20 05:37:31;;;;;;;;;;;3.10;99.90;;;3.30;64.95;98448.94;4993055;28;20485;-79
2021/12/20 05:39:57;;;;;;;;;;;3.20;99.90;;;3.27;64.37;98454.78;5011717;28;19935;-79
2021/12/20 05:42:23;;;;;;;;;;;3.10;99.90;;;3.23;64.87;98456.28;5012183;28;19933;-79
2021/12/20 05:44:51;;;;;;;;;;;3.10;99.90;;;3.23;65.28;98462.50;5027611;28;19936;-79
2021/12/20 05:47:22;;;;;;;;;;;3.10;99.90;;;3.21;65.40;98467.25;5016303;28;20327;-78
2021/12/20 05:49:49;;;;;;;;;;;3.10;99.90;;;3.22;65.35;98473.44;5014891;28;19983;-83
2021/12/20 05:52:15;;;;;;;;;;;3.10;99.90;;;3.35;65.46;98478.53;5016000;28;19972;-83
2021/12/20 05:54:40;;;;;;;;;;;3.10;99.90;;;3.42;64.79;98478.44;5000637;28;19933;-84
2021/12/20 05:57:06;;;;;;;;;;;3.20;99.90;;;3.43;65.00;98475.50;5021421;28;19950;-83
2021/12/20 05:59:32;;;;;;;;;;;3.30;99.90;;;3.41;65.42;98479.47;5016426;28;19929;-84
2021/12/20 06:01:58;;;;;;;;;;;3.30;99.90;;;3.40;64.95;98477.84;4999397;28;19926;-84
2021/12/20 06:04:24;;;;;;;;;;;3.30;99.90;;;3.43;64.54;98472.00;5013799;28;19929;-84
2021/12/20 06:06:50;;;;;;;;;;;3.30;99.90;;;3.41;64.27;98485.66;4998265;28;20019;-85
2021/12/20 06:09:16;;;;;;;;;;;3.30;99.90;;;3.39;64.73;98481.59;5011842;28;19940;-85
2021/12/20 06:11:42;;;;;;;;;;;3.30;99.90;;;3.31;65.29;98492.66;5012758;28;19929;-85
2021/12/20 06:14:08;;;;;;;;;;;3.30;99.90;;;3.25;64.93;98489.84;5013743;28;20434;-84
2021/12/20 06:16:34;;;;;;;;;;;3.20;99.90;;;3.34;64.82;98486.84;5014947;28;19951;-85
2021/12/20 06:19:00;;;;;;;;;;;3.20;99.90;;;3.32;64.92;98505.81;4991655;28;19929;-84
2021/12/20 06:21:26;;;;;;;;;;;3.10;99.90;;;3.33;65.40;98502.09;5010445;28;19960;-85
2021/12/20 06:23:52;;;;;;;;;;;3.10;99.90;;;3.26;65.62;98506.78;5011331;28;19947;-85
2021/12/20 06:26:18;;;;;;;;;;;3.10;99.90;;;3.17;65.54;98514.34;5010674;28;19933;-85
2021/12/20 06:28:44;;;;;;;;;;;3.20;99.90;;;3.21;65.82;98520.88;4995318;28;20350;-85
2021/12/20 06:31:10;;;;;;;;;;;3.20;99.90;;;3.24;65.21;98523.06;5010979;28;19936;-84
2021/12/20 06:33:36;;;;;;;;;;;3.10;99.90;;;3.27;65.53;98521.78;5011684;28;19925;-84
2021/12/20 06:36:02;;;;;;;;;;;3.10;99.90;;;3.21;66.31;98531.59;4993414;28;20022;-85
2021/12/20 06:38:28;;;;;;;;;;;3.20;99.90;;;3.26;66.72;98522.84;5011572;28;19940;-84
2021/12/20 06:40:54;;;;;;;;;;;3.10;99.90;;;3.19;66.33;98528.31;5013947;28;19929;-85
2021/12/20 06:43:20;;;;;;;;;;;3.10;99.90;;;3.09;66.06;98540.66;5009443;28;20466;-85
2021/12/20 06:45:46;;;;;;;;;;;3.00;99.90;;;3.08;66.76;98541.69;5008340;28;19928;-84
2021/12/20 06:48:12;;;;;;;;;;;3.00;99.90;;;3.06;66.18;98544.63;5012709;28;19967;-84
2021/12/20 06:50:38;;;;;;;;;;;3.00;99.90;;;2.99;66.26;98552.75;4996398;28;20335;-85
2021/12/20 06:53:05;;;;;;;;;;;2.90;99.90;;;3.00;66.38;98543.69;5010562;28;19929;-85
2021/12/20 06:55:32;;;;;;;;;;;3.00;99.90;;;3.11;66.63;98534.03;5011347;28;19937;-84
2021/12/20 06:57:58;;;;;;;;;;;3.00;99.90;;;3.10;65.96;98531.56;5011690;28;20052;-85
2021/12/20 07:00:26;;;;;;;;;;;3.00;99.90;;;3.14;65.95;98538.94;5011348;28;19930;-84
2021/12/20 07:02:53;;;;;;;;;;;3.10;99.90;;;3.29;64.60;98534.97;5007952;28;19936;-85
2021/12/20 07:05:19;;;;;;;;;;;3.20;99.90;;;3.39;64.82;98533.34;4997189;28;19979;-84
2021/12/20 07:07:45;;;;;;;;;;;3.20;99.90;;;3.40;65.05;98537.66;4991276;28;19929;-85
2021/12/20 07:10:11;;;;;;;;;;;3.30;99.90;;;3.39;65.09;98540.56;5008667;28;20300;-85
2021/12/20 07:12:38;;;;;;;;;;;3.30;99.90;;;3.44;64.64;98544.19;4992647;28;19929;-85
2021/12/20 07:15:05;;;;;;;;;;;3.40;99.90;;;3.46;64.82;98534.03;5006801;28;19931;-85
2021/12/20 07:17:31;;;;;;;;;;;3.40;99.90;;;3.51;64.26;98544.06;5006759;28;19983;-85
2021/12/20 07:20:00;;;;;;;;;;;3.50;99.90;;;3.46;64.88;98542.09;5006725;28;19968;-84
2021/12/20 07:22:26;;;;;;;;;;;3.50;99.90;;;3.44;64.26;98549.53;4993466;28;19929;-84
2021/12/20 07:24:51;;;;;;;;;;;3.50;99.90;;;3.53;64.59;98544.63;4996526;28;19929;-84
2021/12/20 07:27:18;;;;;;;;;;;3.50;99.90;;;3.48;64.00;98547.19;5012284;28;19937;-84
2021/12/20 07:29:44;;;;;;;;;;;3.50;99.90;;;3.45;64.59;98553.03;5011066;28;19928;-84
2021/12/20 07:32:11;;;;;;;;;;;3.50;99.90;;;3.61;63.86;98551.50;4997473;28;19930;-83
2021/12/20 07:34:38;;;;;;;;;;;3.50;99.90;;;3.62;64.11;98553.16;5001528;28;19929;-82
2021/12/20 07:37:05;;;;;;;;;;;3.50;99.90;;;3.66;63.70;98536.38;5013644;28;19936;-82
2021/12/20 07:39:34;;;;;;;;;;;3.50;99.90;;;3.65;63.20;98545.44;5014727;28;19928;-82
2021/12/20 07:42:00;;;;;;;;;;;3.60;99.90;;;3.63;63.32;98547.53;4999420;28;19968;-83
2021/12/20 07:44:26;;;;;;;;;;;3.60;99.90;;;3.70;63.08;98537.50;5005783;28;19990;-82
2021/12/20 07:46:52;;;;;;;;;;;3.60;99.90;;;3.60;63.41;98545.34;5022138;28;20008;-81
2021/12/20 07:49:18;;;;;;;;;;;3.70;99.90;;;3.55;63.80;98558.63;5007994;28;19929;-82
2021/12/20 07:51:44;;;;;;;;;;;3.50;99.90;;;3.43;63.60;98558.63;5024778;28;19925;-82
2021/12/20 07:54:09;;;;;;;;;;;3.40;99.90;;;3.46;64.15;98562.69;5024273;28;19931;-82
2021/12/20 07:56:37;;;;;;;;;;;3.40;99.90;;;3.46;64.58;98570.75;5027525;28;19982;-82
2021/12/20 07:59:03;;;;;;;;;;;3.40;99.90;;;3.66;63.83;98565.88;5037326;28;19929;-82
2021/12/20 08:01:31;;;;;;;;;;;3.50;99.90;;;3.60;63.90;98566.78;5022607;28;20422;-82
2021/12/20 08:03:57;;;;;;;;;;;3.50;99.90;;;3.64;63.82;98575.22;5022484;28;19929;-82
2021/12/20 08:06:23;;;;;;;;;;;3.60;99.90;;;3.72;63.46;98566.00;5014042;28;19986;-82
2021/12/20 08:08:49;;;;;;;;;;;3.60;99.90;;;3.66;63.34;98570.41;5020466;28;20017;-82
2021/12/20 08:11:15;;;;;;;;;;;3.60;99.90;;;3.73;63.02;98581.03;5034126;28;19929;-82
2021/12/20 08:13:44;;;;;;;;;;;3.60;99.90;;;3.73;63.12;98581.81;5007610;28;19931;-82
2021/12/20 08:16:14;;;;;;;;;;;3.70;99.90;;;3.84;62.53;98578.34;5023706;28;20335;-82
2021/12/20 08:18:43;;;;;;;;;;;3.70;99.90;;;3.75;62.36;98578.94;5027349;28;19935;-82
2021/12/20 08:21:09;;;;;;;;;;;3.70;99.90;;;3.75;62.30;98590.47;5021055;28;20430;-82
2021/12/20 08:23:36;;;;;;;;;;;3.70;99.90;;;3.74;62.63;98585.31;5028545;28;20380;-82
2021/12/20 08:26:02;;;;;;;;;;;3.70;99.90;;;3.69;62.79;98594.91;5005711;28;19925;-82
2021/12/20 08:28:28;;;;;;;;;;;3.60;99.90;;;3.76;63.34;98602.00;5007244;28;19932;-82
2021/12/20 08:30:54;;;;;;;;;;;3.60;99.90;;;3.81;62.90;98610.16;5018718;28;19971;-82
2021/12/20 08:33:20;;;;;;;;;;;3.70;99.90;;;3.94;62.58;98603.75;5005844;28;19944;-83
2021/12/20 08:35:49;;;;;;;;;;;3.70;99.90;;;3.94;62.27;98604.56;5020631;28;19924;-82
2021/12/20 08:38:18;;;;;;;;;;;3.80;99.90;;;3.95;62.40;98608.88;5022862;28;19928;-84
2021/12/20 08:40:45;;;;;;;;;;;3.90;99.90;;;4.01;62.31;98613.31;5013043;28;19932;-82
2021/12/20 08:43:11;;;;;;;;;;;3.90;99.90;;;3.93;62.29;98602.94;5011674;28;19932;-83
2021/12/20 08:45:36;;;;;;;;;;;3.90;99.90;;;4.05;61.80;98611.78;5022067;28;19931;-82
2021/12/20 08:48:04;;;;;;;;;;;4.00;99.90;;;4.08;62.00;98608.63;5021860;28;19940;-82
2021/12/20 08:50:30;;;;;;;;;;;4.00;99.90;;;4.28;61.43;98610.94;5024820;28;20026;-82
2021/12/20 08:52:55;;;;;;;;;;;4.10;99.90;;;4.41;61.00;98609.84;5024423;28;19929;-82
2021/12/20 08:55:22;;;;;;;;;;;4.30;99.90;;;4.41;60.50;98611.72;5037266;28;19928;-83
2021/12/20 08:57:48;;;;;;;;;;;4.40;99.90;;;4.41;61.01;98617.09;5013359;28;20006;-82
2021/12/20 09:00:21;;;;;;;;;;;4.40;99.90;;;4.41;60.44;98615.22;5024032;28;19929;-83
2021/12/20 09:02:47;;;;;;;;;;;4.40;99.90;;;4.49;60.81;98611.34;5010626;28;19971;-83
2021/12/20 09:05:12;;;;;;;;;;;4.40;99.90;;;4.52;60.14;98602.78;5018692;28;20202;-83
2021/12/20 09:07:41;;;;;;;;;;;4.50;99.90;;;4.54;60.30;98609.56;5014446;28;19971;-83
2021/12/20 09:10:08;;;;;;;;;;;4.50;99.90;;;4.55;60.42;98610.38;5036338;28;20024;-83
2021/12/20 09:12:34;;;;;;;;;;;4.50;99.90;;;4.54;59.96;98616.81;5030507;28;19928;-83
2021/12/20 09:15:00;;;;;;;;;;;4.50;99.90;;;4.61;60.32;98614.00;5018623;28;19974;-83
2021/12/20 09:17:26;;;;;;;;;;;4.50;99.90;;;4.61;59.61;98620.16;5020605;28;20016;-83
2021/12/20 09:19:53;;;;;;;;;;;4.60;99.90;;;4.46;60.07;98618.00;5023925;28;19933;-83
2021/12/20 09:22:19;;;;;;;;;;;4.50;99.90;;;4.41;60.57;98620.59;5026757;28;20217;-83
2021/12/20 09:24:45;;;;;;;;;;;4.50;99.90;;;4.50;61.09;98616.47;4998623;28;19932;-83
2021/12/20 09:27:12;;;;;;;;;;;4.50;99.90;;;4.59;59.69;98621.47;5020508;28;19929;-83
2021/12/20 09:29:39;;;;;;;;;;;4.60;99.90;;;4.88;59.31;98619.59;5019588;28;19975;-83
2021/12/20 09:32:05;;;;;;;;;;;4.70;99.90;;;4.69;59.81;98624.34;5016498;28;20039;-83
2021/12/20 09:34:31;;;;;;;;;;;4.80;99.90;;;4.70;60.19;98599.09;4999142;28;19928;-83
2021/12/20 09:36:58;;;;;;;;;;;4.80;99.90;;;4.70;59.59;98625.97;5010502;28;19940;-83
2021/12/20 09:39:25;;;;;;;;;;;4.80;99.90;;;4.71;60.07;98625.75;5024406;28;19929;-83
2021/12/20 09:42:00;;;;;;;;;;;4.80;99.90;;;4.79;59.29;98621.84;4997837;28;19928;-83
2021/12/20 09:44:26;;;;;;;;;;;4.80;99.90;;;4.67;59.47;98634.50;5019485;28;19940;-83
2021/12/20 09:46:54;;;;;;;;;;;4.70;99.90;;;4.59;59.79;98619.59;5003521;28;20321;-83
2021/12/20 09:49:20;;;;;;;;;;;4.60;99.90;;;4.59;59.41;98633.03;5008030;28;20371;-83
2021/12/20 09:51:47;;;;;;;;;;;4.50;99.90;;;4.61;59.85;98624.75;5021947;28;20362;-83
2021/12/20 09:54:13;;;;;;;;;;;4.50;99.90;;;4.49;59.35;98639.00;5019007;28;20020;-83
2021/12/20 09:56:39;;;;;;;;;;;4.60;99.90;;;4.37;60.26;98627.47;5019111;28;19929;-83
2021/12/20 09:59:05;;;;;;;;;;;4.40;99.90;;;4.46;60.67;98634.13;5020528;28;20360;-83
2021/12/20 10:01:31;;;;;;;;;;;4.50;99.90;;;4.44;59.26;98636.22;5003656;28;19929;-83
2021/12/20 10:03:57;;;;;;;;;;;4.50;99.90;;;4.48;60.08;98629.31;5001756;28;20346;-83
2021/12/20 10:06:23;;;;;;;;;;;4.50;99.90;;;4.51;58.75;98641.47;5002318;28;19979;-83
2021/12/20 10:08:55;;;;;;;;;;;4.50;99.90;;;4.50;58.80;98645.19;5021641;28;19939;-83
2021/12/20 10:11:22;;;;;;;;;;;4.50;99.90;;;4.58;59.10;98631.41;5017999;28;20291;-84
2021/12/20 10:13:48;;;;;;;;;;;4.50;99.90;;;4.61;57.89;98635.47;5015052;28;20361;-83
2021/12/20 10:16:19;;;;;;;;;;;4.60;99.90;;;4.56;59.63;98649.63;5004432;28;20579;-83
2021/12/20 10:18:45;;;;;;;;;;;4.60;99.90;;;4.57;59.70;98635.13;5017351;28;19925;-84
2021/12/20 10:21:11;;;;;;;;;;;4.60;99.90;;;4.57;59.11;98643.19;5016781;28;20556;-84
2021/12/20 10:23:40;;;;;;;;;;;4.60;99.90;;;4.50;59.42;98648.72;5017085;28;19924;-83
2021/12/20 10:26:26;;;;;;;;;;;4.50;99.90;;;4.61;59.65;98652.41;5016333;28;19932;-83
2021/12/20 10:28:53;;;;;;;;;;;4.50;99.90;;;4.68;60.32;98642.34;5033603;28;20069;-83
2021/12/20 10:31:23;;;;;;;;;;;4.60;99.90;;;4.64;60.18;98630.44;5019589;28;20216;-83
2021/12/20 10:33:53;;;;;;;;;;;4.60;99.90;;;4.70;60.36;98650.16;5031908;28;19951;-83
2021/12/20 10:36:19;;;;;;;;;;;4.70;99.90;;;4.75;60.42;98628.75;5011493;28;19972;-83
2021/12/20 10:38:47;;;;;;;;;;;4.80;99.90;;;4.85;59.97;98650.44;4999379;28;19936;-84
2021/12/20 10:41:15;;;;;;;;;;;4.90;99.90;;;4.73;60.49;98638.91;5017367;28;19932;-83
2021/12/20 10:43:50;;;;;;;;;;;4.80;99.90;;;4.72;59.84;98643.47;5034889;28;20047;-83
2021/12/20 10:46:24;;;;;;;;;;;4.80;99.90;;;4.69;61.00;98653.91;5037267;28;19936;-83
2021/12/20 10:49:04;;;;;;;;;;;4.80;99.90;;;4.69;60.75;98662.78;5017414;28;19928;-83
2021/12/20 10:51:33;;;;;;;;;;;4.70;99.90;;;4.54;61.21;98652.53;5021146;28;19929;-83
2021/12/20 10:54:02;;;;;;;;;;;4.60;99.90;;;4.51;61.92;98660.25;5033406;28;20616;-83
2021/12/20 10:56:32;;;;;;;;;;;4.60;99.90;;;4.43;61.98;98657.97;5021837;28;19935;-83
2021/12/20 10:58:59;;;;;;;;;;;4.50;99.90;;;4.23;61.99;98653.78;5008230;28;19983;-83
2021/12/20 11:04:10;;;;;;;;;;;4.30;99.90;;;4.07;62.45;98652.63;5024187;28;20319;-83
2021/12/20 11:06:43;;;;;;;;;;;4.20;99.90;;;3.94;62.98;98663.59;5018219;28;20502;-83
2021/12/20 11:09:15;;;;;;;;;;;4.10;99.90;;;3.80;63.19;98671.06;5001559;28;20379;-83
2021/12/20 11:11:47;;;;;;;;;;;3.90;99.90;;;3.69;63.76;98666.53;5025813;28;19970;-83
2021/12/20 11:14:13;;;;;;;;;;;3.80;99.90;;;3.68;63.32;98675.59;5033238;28;19935;-83
2021/12/20 11:16:41;;;;;;;;;;;3.70;99.90;;;3.80;64.06;98681.81;5017843;28;19929;-83
2021/12/20 11:19:33;;;;;;;;;;;3.70;99.90;;;3.78;63.17;98669.66;5008087;28;20299;-83
2021/12/20 11:22:00;;;;;;;;;;;3.70;99.90;;;3.95;63.75;98691.28;5009957;28;19929;-83
2021/12/20 11:24:37;;;;;;;;;;;3.80;99.90;;;4.13;63.08;98675.03;5007396;28;20265;-83
2021/12/20 11:27:07;;;;;;;;;;;4.00;99.90;;;4.11;62.31;98669.88;5035750;28;20474;-83
2021/12/20 11:29:34;;;;;;;;;;;4.10;99.90;;;4.25;62.00;98681.22;5008210;28;19933;-83
2021/12/20 11:32:00;;;;;;;;;;;4.30;99.90;;;4.24;61.45;98673.38;5022592;28;20688;-83
2021/12/20 11:34:27;;;;;;;;;;;4.40;99.90;;;4.30;60.27;98667.06;4991458;28;19929;-86
2021/12/20 11:36:53;;;;;;;;;;;4.30;99.90;;;4.21;60.46;98674.66;5002560;28;20363;-85
2021/12/20 11:39:19;;;;;;;;;;;4.30;99.90;;;4.18;60.96;98674.34;5005330;28;19928;-85
2021/12/20 11:41:45;;;;;;;;;;;4.30;99.90;;;4.43;60.58;98674.88;5021666;28;20395;-85
2021/12/20 11:44:19;;;;;;;;;;;4.30;99.90;;;4.56;60.41;98671.94;5016247;28;19944;-85